sensor_id;sensor_type;location;lat;lon;timestamp;P1;durP1;ratioP1;P2;durP2;ratioP2
34725;SDS011;20951;50.818;4.344;2023-05-10T00:01:03;18.25;;;10.70;;
34725;SDS011;20951;50.818;4.344;2023-05-10T00:03:36;21.13;;;11.80;;
34725;SDS011;20951;50.818;4.344;2023-05-10T00:06:12;24.70;;;12.30;;
34725;SDS011;20951;50.818;4.344;2023-05-10T00:08:43;22.35;;;12.20;;
34725;SDS011;20951;50.818;4.344;2023-05-10T00:11:19;22.35;;;11.82;;
34725;SDS011;20951;50.818;4.344;2023-05-10T00:13:45;22.67;;;11.63;;
34725;SDS011;20951;50.818;4.344;2023-05-10T00:16:16;23.75;;;12.40;;
34725;SDS011;20951;50.818;4.344;2023-05-10T00:18:52;26.08;;;12.27;;
34725;SDS011;20951;50.818;4.344;2023-05-10T00:21:18;22.88;;;12.35;;
34725;SDS011;20951;50.818;4.344;2023-05-10T00:23:46;21.17;;;12.48;;
34725;SDS011;20951;50.818;4.344;2023-05-10T00:26:21;23.77;;;12.07;;
34725;SDS011;20951;50.818;4.344;2023-05-10T00:28:47;26.23;;;12.95;;
34725;SDS011;20951;50.818;4.344;2023-05-10T00:31:26;22.08;;;12.40;;
34725;SDS011;20951;50.818;4.344;2023-05-10T00:33:56;21.77;;;12.27;;
34725;SDS011;20951;50.818;4.344;2023-05-10T00:36:25;22.30;;;12.50;;
34725;SDS011;20951;50.818;4.344;2023-05-10T00:38:52;24.70;;;13.32;;
34725;SDS011;20951;50.818;4.344;2023-05-10T00:41:18;23.08;;;12.95;;
34725;SDS011;20951;50.818;4.344;2023-05-10T00:43:56;20.95;;;13.32;;
34725;SDS011;20951;50.818;4.344;2023-05-10T00:46:27;24.40;;;13.05;;
34725;SDS011;20951;50.818;4.344;2023-05-10T00:48:56;22.27;;;13.68;;
34725;SDS011;20951;50.818;4.344;2023-05-10T00:51:30;24.58;;;14.32;;
34725;SDS011;20951;50.818;4.344;2023-05-10T00:53:57;24.85;;;14.35;;
34725;SDS011;20951;50.818;4.344;2023-05-10T00:56:23;24.40;;;14.02;;
34725;SDS011;20951;50.818;4.344;2023-05-10T00:58:50;22.75;;;14.48;;
34725;SDS011;20951;50.818;4.344;2023-05-10T01:01:23;25.10;;;15.13;;
34725;SDS011;20951;50.818;4.344;2023-05-10T01:04:00;22.73;;;14.55;;
34725;SDS011;20951;50.818;4.344;2023-05-10T01:06:29;25.05;;;15.73;;
34725;SDS011;20951;50.818;4.344;2023-05-10T01:08:57;25.52;;;15.30;;
34725;SDS011;20951;50.818;4.344;2023-05-10T01:11:36;25.33;;;15.18;;
34725;SDS011;20951;50.818;4.344;2023-05-10T01:14:12;23.60;;;14.52;;
34725;SDS011;20951;50.818;4.344;2023-05-10T01:16:47;26.95;;;15.02;;
34725;SDS011;20951;50.818;4.344;2023-05-10T01:19:26;26.85;;;15.13;;
34725;SDS011;20951;50.818;4.344;2023-05-10T01:31:22;26.80;;;15.73;;
34725;SDS011;20951;50.818;4.344;2023-05-10T01:34:12;24.48;;;15.60;;
34725;SDS011;20951;50.818;4.344;2023-05-10T01:36:57;29.88;;;16.23;;
34725;SDS011;20951;50.818;4.344;2023-05-10T01:39:50;25.98;;;15.95;;
34725;SDS011;20951;50.818;4.344;2023-05-10T01:42:40;22.27;;;15.10;;
34725;SDS011;20951;50.818;4.344;2023-05-10T01:48:06;24.65;;;15.82;;
34725;SDS011;20951;50.818;4.344;2023-05-10T01:50:35;26.27;;;16.60;;
34725;SDS011;20951;50.818;4.344;2023-05-10T01:53:11;25.98;;;17.17;;
34725;SDS011;20951;50.818;4.344;2023-05-10T01:55:56;26.58;;;16.67;;
34725;SDS011;20951;50.818;4.344;2023-05-10T01:58:28;27.35;;;16.45;;
34725;SDS011;20951;50.818;4.344;2023-05-10T02:00:58;27.08;;;16.88;;
34725;SDS011;20951;50.818;4.344;2023-05-10T02:03:29;26.27;;;17.40;;
34725;SDS011;20951;50.818;4.344;2023-05-10T02:06:07;26.63;;;16.50;;
34725;SDS011;20951;50.818;4.344;2023-05-10T02:08:38;27.30;;;16.65;;
34725;SDS011;20951;50.818;4.344;2023-05-10T02:11:08;29.67;;;17.50;;
34725;SDS011;20951;50.818;4.344;2023-05-10T02:13:37;23.90;;;16.33;;
34725;SDS011;20951;50.818;4.344;2023-05-10T02:16:14;30.02;;;16.73;;
34725;SDS011;20951;50.818;4.344;2023-05-10T02:18:47;28.02;;;16.17;;
34725;SDS011;20951;50.818;4.344;2023-05-10T02:21:14;27.45;;;16.25;;
34725;SDS011;20951;50.818;4.344;2023-05-10T02:23:44;25.80;;;15.75;;
34725;SDS011;20951;50.818;4.344;2023-05-10T02:26:19;26.95;;;15.25;;
34725;SDS011;20951;50.818;4.344;2023-05-10T02:28:50;29.23;;;15.68;;
34725;SDS011;20951;50.818;4.344;2023-05-10T02:31:28;23.02;;;14.85;;
34725;SDS011;20951;50.818;4.344;2023-05-10T02:34:08;22.30;;;14.05;;
34725;SDS011;20951;50.818;4.344;2023-05-10T02:36:36;22.77;;;14.18;;
34725;SDS011;20951;50.818;4.344;2023-05-10T02:39:06;24.45;;;14.35;;
34725;SDS011;20951;50.818;4.344;2023-05-10T02:41:40;22.23;;;13.63;;
34725;SDS011;20951;50.818;4.344;2023-05-10T02:44:15;24.65;;;13.90;;
34725;SDS011;20951;50.818;4.344;2023-05-10T02:46:45;23.70;;;13.90;;
34725;SDS011;20951;50.818;4.344;2023-05-10T02:49:31;21.80;;;13.05;;
34725;SDS011;20951;50.818;4.344;2023-05-10T02:52:00;23.27;;;14.23;;
34725;SDS011;20951;50.818;4.344;2023-05-10T02:54:41;22.30;;;12.88;;
34725;SDS011;20951;50.818;4.344;2023-05-10T02:57:16;22.65;;;13.95;;
34725;SDS011;20951;50.818;4.344;2023-05-10T02:59:57;23.50;;;13.85;;
34725;SDS011;20951;50.818;4.344;2023-05-10T03:02:26;25.95;;;13.55;;
34725;SDS011;20951;50.818;4.344;2023-05-10T03:05:04;27.33;;;14.10;;
34725;SDS011;20951;50.818;4.344;2023-05-10T03:07:34;22.55;;;13.68;;
34725;SDS011;20951;50.818;4.344;2023-05-10T03:10:03;20.70;;;13.75;;
34725;SDS011;20951;50.818;4.344;2023-05-10T03:12:49;22.90;;;14.07;;
34725;SDS011;20951;50.818;4.344;2023-05-10T03:18:28;25.58;;;14.60;;
34725;SDS011;20951;50.818;4.344;2023-05-10T03:21:02;24.92;;;14.57;;
34725;SDS011;20951;50.818;4.344;2023-05-10T03:26:33;22.17;;;13.98;;
34725;SDS011;20951;50.818;4.344;2023-05-10T03:29:00;25.50;;;15.85;;
34725;SDS011;20951;50.818;4.344;2023-05-10T03:31:34;24.83;;;15.10;;
34725;SDS011;20951;50.818;4.344;2023-05-10T03:34:09;27.65;;;16.08;;
34725;SDS011;20951;50.818;4.344;2023-05-10T03:36:55;27.05;;;16.92;;
34725;SDS011;20951;50.818;4.344;2023-05-10T03:39:26;26.95;;;17.20;;
34725;SDS011;20951;50.818;4.344;2023-05-10T03:42:07;30.05;;;17.13;;
34725;SDS011;20951;50.818;4.344;2023-05-10T03:44:36;31.83;;;18.33;;
34725;SDS011;20951;50.818;4.344;2023-05-10T03:47:22;30.60;;;18.13;;
34725;SDS011;20951;50.818;4.344;2023-05-10T03:49:59;32.20;;;19.10;;
34725;SDS011;20951;50.818;4.344;2023-05-10T03:52:35;32.47;;;20.60;;
34725;SDS011;20951;50.818;4.344;2023-05-10T03:55:04;32.47;;;19.85;;
34725;SDS011;20951;50.818;4.344;2023-05-10T03:57:33;33.63;;;19.88;;
34725;SDS011;20951;50.818;4.344;2023-05-10T03:59:59;38.15;;;21.40;;
34725;SDS011;20951;50.818;4.344;2023-05-10T04:02:27;33.15;;;20.55;;
34725;SDS011;20951;50.818;4.344;2023-05-10T04:05:04;34.63;;;20.75;;
34725;SDS011;20951;50.818;4.344;2023-05-10T04:07:33;34.85;;;20.83;;
34725;SDS011;20951;50.818;4.344;2023-05-10T04:10:12;32.53;;;20.58;;
34725;SDS011;20951;50.818;4.344;2023-05-10T04:12:47;39.03;;;22.02;;
34725;SDS011;20951;50.818;4.344;2023-05-10T04:15:23;35.63;;;20.42;;
34725;SDS011;20951;50.818;4.344;2023-05-10T04:17:51;39.03;;;21.83;;
34725;SDS011;20951;50.818;4.344;2023-05-10T04:20:18;38.83;;;21.70;;
34725;SDS011;20951;50.818;4.344;2023-05-10T04:22:46;40.90;;;22.20;;
34725;SDS011;20951;50.818;4.344;2023-05-10T04:25:12;42.40;;;22.85;;
34725;SDS011;20951;50.818;4.344;2023-05-10T04:27:41;42.03;;;23.10;;
34725;SDS011;20951;50.818;4.344;2023-05-10T04:30:19;43.75;;;25.05;;
34725;SDS011;20951;50.818;4.344;2023-05-10T04:32:56;40.97;;;23.25;;
34725;SDS011;20951;50.818;4.344;2023-05-10T04:35:21;42.47;;;24.67;;
34725;SDS011;20951;50.818;4.344;2023-05-10T04:37:50;48.35;;;26.02;;
34725;SDS011;20951;50.818;4.344;2023-05-10T04:40:19;45.47;;;26.58;;
34725;SDS011;20951;50.818;4.344;2023-05-10T04:42:52;45.92;;;24.95;;
34725;SDS011;20951;50.818;4.344;2023-05-10T04:45:28;42.75;;;25.08;;
34725;SDS011;20951;50.818;4.344;2023-05-10T04:47:56;41.03;;;25.13;;
34725;SDS011;20951;50.818;4.344;2023-05-10T04:50:24;41.22;;;22.45;;
34725;SDS011;20951;50.818;4.344;2023-05-10T04:52:54;32.63;;;20.42;;
34725;SDS011;20951;50.818;4.344;2023-05-10T04:55:31;32.83;;;18.45;;
34725;SDS011;20951;50.818;4.344;2023-05-10T04:57:59;30.83;;;19.20;;
34725;SDS011;20951;50.818;4.344;2023-05-10T05:00:32;31.80;;;19.23;;
34725;SDS011;20951;50.818;4.344;2023-05-10T05:03:09;27.02;;;15.60;;
34725;SDS011;20951;50.818;4.344;2023-05-10T05:05:35;24.92;;;15.27;;
34725;SDS011;20951;50.818;4.344;2023-05-10T05:08:11;25.63;;;15.23;;
34725;SDS011;20951;50.818;4.344;2023-05-10T05:10:50;26.33;;;15.52;;
34725;SDS011;20951;50.818;4.344;2023-05-10T05:13:28;27.73;;;16.33;;
34725;SDS011;20951;50.818;4.344;2023-05-10T05:16:07;29.67;;;17.58;;
34725;SDS011;20951;50.818;4.344;2023-05-10T05:18:43;29.83;;;17.33;;
34725;SDS011;20951;50.818;4.344;2023-05-10T05:21:17;28.92;;;17.73;;
34725;SDS011;20951;50.818;4.344;2023-05-10T05:23:53;32.08;;;19.30;;
34725;SDS011;20951;50.818;4.344;2023-05-10T05:26:19;35.97;;;19.55;;
34725;SDS011;20951;50.818;4.344;2023-05-10T05:28:56;30.73;;;18.70;;
34725;SDS011;20951;50.818;4.344;2023-05-10T05:31:22;34.25;;;20.15;;
34725;SDS011;20951;50.818;4.344;2023-05-10T05:33:58;36.90;;;20.98;;
34725;SDS011;20951;50.818;4.344;2023-05-10T05:36:31;36.88;;;20.35;;
34725;SDS011;20951;50.818;4.344;2023-05-10T05:39:08;32.58;;;21.38;;
34725;SDS011;20951;50.818;4.344;2023-05-10T05:41:41;36.93;;;20.17;;
34725;SDS011;20951;50.818;4.344;2023-05-10T05:44:17;33.63;;;20.35;;
34725;SDS011;20951;50.818;4.344;2023-05-10T05:46:43;38.00;;;20.30;;
34725;SDS011;20951;50.818;4.344;2023-05-10T05:49:13;29.85;;;19.13;;
34725;SDS011;20951;50.818;4.344;2023-05-10T05:51:42;35.88;;;19.58;;
34725;SDS011;20951;50.818;4.344;2023-05-10T05:54:23;35.33;;;19.83;;
34725;SDS011;20951;50.818;4.344;2023-05-10T05:56:55;34.15;;;18.50;;
34725;SDS011;20951;50.818;4.344;2023-05-10T05:59:37;39.55;;;18.63;;
34725;SDS011;20951;50.818;4.344;2023-05-10T06:02:14;36.28;;;18.40;;
34725;SDS011;20951;50.818;4.344;2023-05-10T06:04:50;32.13;;;16.75;;
34725;SDS011;20951;50.818;4.344;2023-05-10T06:07:37;30.60;;;16.80;;
34725;SDS011;20951;50.818;4.344;2023-05-10T06:10:09;29.58;;;16.27;;
34725;SDS011;20951;50.818;4.344;2023-05-10T06:12:45;36.10;;;16.90;;
34725;SDS011;20951;50.818;4.344;2023-05-10T06:15:14;33.60;;;16.50;;
34725;SDS011;20951;50.818;4.344;2023-05-10T06:17:40;27.85;;;14.68;;
34725;SDS011;20951;50.818;4.344;2023-05-10T06:20:06;31.67;;;14.43;;
34725;SDS011;20951;50.818;4.344;2023-05-10T06:22:32;24.23;;;13.20;;
34725;SDS011;20951;50.818;4.344;2023-05-10T06:24:58;23.23;;;12.32;;
34725;SDS011;20951;50.818;4.344;2023-05-10T06:27:24;21.38;;;11.30;;
34725;SDS011;20951;50.818;4.344;2023-05-10T06:30:00;21.30;;;11.57;;
34725;SDS011;20951;50.818;4.344;2023-05-10T06:32:39;17.92;;;10.55;;
34725;SDS011;20951;50.818;4.344;2023-05-10T06:35:15;18.80;;;10.57;;
34725;SDS011;20951;50.818;4.344;2023-05-10T06:37:48;17.10;;;9.93;;
34725;SDS011;20951;50.818;4.344;2023-05-10T06:40:24;15.07;;;9.60;;
34725;SDS011;20951;50.818;4.344;2023-05-10T06:43:03;17.08;;;10.45;;
34725;SDS011;20951;50.818;4.344;2023-05-10T06:45:42;17.10;;;10.27;;
34725;SDS011;20951;50.818;4.344;2023-05-10T06:48:18;17.52;;;10.23;;
34725;SDS011;20951;50.818;4.344;2023-05-10T06:50:46;14.82;;;9.75;;
34725;SDS011;20951;50.818;4.344;2023-05-10T06:53:12;14.43;;;9.88;;
34725;SDS011;20951;50.818;4.344;2023-05-10T06:55:38;16.00;;;9.95;;
34725;SDS011;20951;50.818;4.344;2023-05-10T06:58:17;13.73;;;9.82;;
34725;SDS011;20951;50.818;4.344;2023-05-10T07:00:45;15.75;;;9.80;;
34725;SDS011;20951;50.818;4.344;2023-05-10T07:03:12;15.88;;;9.90;;
34725;SDS011;20951;50.818;4.344;2023-05-10T07:05:50;12.88;;;9.45;;
34725;SDS011;20951;50.818;4.344;2023-05-10T07:08:32;19.70;;;11.18;;
34725;SDS011;20951;50.818;4.344;2023-05-10T07:11:01;21.42;;;11.57;;
34725;SDS011;20951;50.818;4.344;2023-05-10T07:13:35;18.75;;;10.93;;
34725;SDS011;20951;50.818;4.344;2023-05-10T07:16:11;22.25;;;11.10;;
34725;SDS011;20951;50.818;4.344;2023-05-10T07:18:42;22.80;;;11.55;;
34725;SDS011;20951;50.818;4.344;2023-05-10T07:21:19;21.02;;;12.23;;
34725;SDS011;20951;50.818;4.344;2023-05-10T07:23:58;26.00;;;13.55;;
34725;SDS011;20951;50.818;4.344;2023-05-10T07:26:25;21.17;;;12.57;;
34725;SDS011;20951;50.818;4.344;2023-05-10T07:28:53;24.50;;;13.25;;
34725;SDS011;20951;50.818;4.344;2023-05-10T07:31:21;26.70;;;13.23;;
34725;SDS011;20951;50.818;4.344;2023-05-10T07:33:47;22.98;;;12.45;;
34725;SDS011;20951;50.818;4.344;2023-05-10T07:36:26;18.88;;;11.02;;
34725;SDS011;20951;50.818;4.344;2023-05-10T07:39:05;24.85;;;12.77;;
34725;SDS011;20951;50.818;4.344;2023-05-10T07:41:41;21.67;;;11.90;;
34725;SDS011;20951;50.818;4.344;2023-05-10T07:44:17;18.10;;;10.20;;
34725;SDS011;20951;50.818;4.344;2023-05-10T07:47:05;19.50;;;10.05;;
34725;SDS011;20951;50.818;4.344;2023-05-10T07:49:31;14.48;;;9.30;;
34725;SDS011;20951;50.818;4.344;2023-05-10T07:52:04;15.57;;;9.60;;
34725;SDS011;20951;50.818;4.344;2023-05-10T07:54:34;14.40;;;9.90;;
34725;SDS011;20951;50.818;4.344;2023-05-10T07:57:08;15.25;;;8.98;;
34725;SDS011;20951;50.818;4.344;2023-05-10T07:59:49;18.52;;;9.73;;
34725;SDS011;20951;50.818;4.344;2023-05-10T08:02:17;14.13;;;9.45;;
34725;SDS011;20951;50.818;4.344;2023-05-10T08:04:46;14.77;;;9.20;;
34725;SDS011;20951;50.818;4.344;2023-05-10T08:07:32;12.15;;;7.63;;
34725;SDS011;20951;50.818;4.344;2023-05-10T08:10:17;11.00;;;7.75;;
34725;SDS011;20951;50.818;4.344;2023-05-10T08:12:55;12.43;;;7.95;;
34725;SDS011;20951;50.818;4.344;2023-05-10T08:15:31;13.32;;;7.60;;
34725;SDS011;20951;50.818;4.344;2023-05-10T08:18:07;11.55;;;7.30;;
34725;SDS011;20951;50.818;4.344;2023-05-10T08:20:35;12.70;;;7.10;;
34725;SDS011;20951;50.818;4.344;2023-05-10T08:23:03;11.43;;;7.28;;
34725;SDS011;20951;50.818;4.344;2023-05-10T08:25:29;10.40;;;6.70;;
34725;SDS011;20951;50.818;4.344;2023-05-10T08:28:08;10.15;;;7.13;;
34725;SDS011;20951;50.818;4.344;2023-05-10T08:30:41;9.88;;;6.32;;
34725;SDS011;20951;50.818;4.344;2023-05-10T08:33:17;9.82;;;6.45;;
34725;SDS011;20951;50.818;4.344;2023-05-10T08:36:10;11.98;;;6.45;;
34725;SDS011;20951;50.818;4.344;2023-05-10T08:38:47;9.83;;;6.80;;
34725;SDS011;20951;50.818;4.344;2023-05-10T08:41:15;10.15;;;5.88;;
34725;SDS011;20951;50.818;4.344;2023-05-10T08:43:52;13.48;;;7.57;;
34725;SDS011;20951;50.818;4.344;2023-05-10T08:46:29;12.57;;;7.30;;
34725;SDS011;20951;50.818;4.344;2023-05-10T08:49:09;9.38;;;6.68;;
34725;SDS011;20951;50.818;4.344;2023-05-10T08:52:02;9.57;;;6.63;;
34725;SDS011;20951;50.818;4.344;2023-05-10T08:54:33;12.48;;;6.65;;
34725;SDS011;20951;50.818;4.344;2023-05-10T08:57:12;11.45;;;7.13;;
34725;SDS011;20951;50.818;4.344;2023-05-10T08:59:48;12.77;;;7.43;;
34725;SDS011;20951;50.818;4.344;2023-05-10T09:02:21;13.07;;;8.35;;
34725;SDS011;20951;50.818;4.344;2023-05-10T09:04:57;11.93;;;7.00;;
34725;SDS011;20951;50.818;4.344;2023-05-10T09:07:40;14.40;;;6.90;;
34725;SDS011;20951;50.818;4.344;2023-05-10T09:10:14;10.10;;;6.32;;
34725;SDS011;20951;50.818;4.344;2023-05-10T09:12:40;9.93;;;6.13;;
34725;SDS011;20951;50.818;4.344;2023-05-10T09:15:08;9.73;;;6.30;;
34725;SDS011;20951;50.818;4.344;2023-05-10T09:17:46;10.82;;;6.70;;
34725;SDS011;20951;50.818;4.344;2023-05-10T09:20:19;11.48;;;7.30;;
34725;SDS011;20951;50.818;4.344;2023-05-10T09:22:48;11.38;;;6.32;;
34725;SDS011;20951;50.818;4.344;2023-05-10T09:25:19;10.25;;;6.13;;
34725;SDS011;20951;50.818;4.344;2023-05-10T09:27:55;9.00;;;6.63;;
34725;SDS011;20951;50.818;4.344;2023-05-10T09:30:38;7.90;;;6.10;;
34725;SDS011;20951;50.818;4.344;2023-05-10T09:33:14;8.73;;;6.35;;
34725;SDS011;20951;50.818;4.344;2023-05-10T09:35:53;10.60;;;6.22;;
34725;SDS011;20951;50.818;4.344;2023-05-10T09:38:21;9.32;;;6.63;;
34725;SDS011;20951;50.818;4.344;2023-05-10T09:40:53;8.73;;;6.03;;
34725;SDS011;20951;50.818;4.344;2023-05-10T09:43:22;10.35;;;6.90;;
34725;SDS011;20951;50.818;4.344;2023-05-10T09:45:57;9.48;;;7.43;;
34725;SDS011;20951;50.818;4.344;2023-05-10T09:48:33;9.30;;;7.00;;
34725;SDS011;20951;50.818;4.344;2023-05-10T09:51:05;9.30;;;7.07;;
34725;SDS011;20951;50.818;4.344;2023-05-10T09:53:31;12.32;;;7.80;;
34725;SDS011;20951;50.818;4.344;2023-05-10T09:56:09;11.40;;;7.78;;
34725;SDS011;20951;50.818;4.344;2023-05-10T09:58:49;10.45;;;7.20;;
34725;SDS011;20951;50.818;4.344;2023-05-10T10:01:40;9.65;;;7.65;;
34725;SDS011;20951;50.818;4.344;2023-05-10T10:04:18;11.80;;;8.30;;
34725;SDS011;20951;50.818;4.344;2023-05-10T10:07:01;10.85;;;8.25;;
34725;SDS011;20951;50.818;4.344;2023-05-10T10:09:38;12.90;;;8.15;;
34725;SDS011;20951;50.818;4.344;2023-05-10T10:12:15;10.95;;;7.80;;
34725;SDS011;20951;50.818;4.344;2023-05-10T10:14:50;13.07;;;8.70;;
34725;SDS011;20951;50.818;4.344;2023-05-10T10:17:29;10.13;;;7.90;;
34725;SDS011;20951;50.818;4.344;2023-05-10T10:20:17;11.25;;;7.43;;
34725;SDS011;20951;50.818;4.344;2023-05-10T10:22:54;10.50;;;7.38;;
34725;SDS011;20951;50.818;4.344;2023-05-10T10:25:27;11.50;;;8.32;;
34725;SDS011;20951;50.818;4.344;2023-05-10T10:27:59;10.40;;;7.25;;
34725;SDS011;20951;50.818;4.344;2023-05-10T10:30:54;11.45;;;7.90;;
34725;SDS011;20951;50.818;4.344;2023-05-10T10:36:20;9.02;;;7.07;;
34725;SDS011;20951;50.818;4.344;2023-05-10T10:39:00;10.55;;;6.90;;
34725;SDS011;20951;50.818;4.344;2023-05-10T10:41:34;9.98;;;7.15;;
34725;SDS011;20951;50.818;4.344;2023-05-10T10:44:24;11.82;;;7.75;;
34725;SDS011;20951;50.818;4.344;2023-05-10T10:49:50;11.88;;;8.02;;
34725;SDS011;20951;50.818;4.344;2023-05-10T10:55:07;12.35;;;8.43;;
34725;SDS011;20951;50.818;4.344;2023-05-10T10:57:52;9.63;;;7.40;;
34725;SDS011;20951;50.818;4.344;2023-05-10T11:00:32;11.98;;;7.68;;
34725;SDS011;20951;50.818;4.344;2023-05-10T11:11:04;10.23;;;6.97;;
34725;SDS011;20951;50.818;4.344;2023-05-10T11:13:38;10.00;;;7.32;;
34725;SDS011;20951;50.818;4.344;2023-05-10T11:16:12;9.95;;;7.22;;
34725;SDS011;20951;50.818;4.344;2023-05-10T11:18:38;10.10;;;7.50;;
34725;SDS011;20951;50.818;4.344;2023-05-10T11:21:08;9.10;;;6.63;;
34725;SDS011;20951;50.818;4.344;2023-05-10T11:26:50;8.68;;;6.57;;
34725;SDS011;20951;50.818;4.344;2023-05-10T11:29:27;7.85;;;5.72;;
34725;SDS011;20951;50.818;4.344;2023-05-10T11:31:53;7.95;;;6.10;;
34725;SDS011;20951;50.818;4.344;2023-05-10T11:34:33;7.40;;;6.00;;
34725;SDS011;20951;50.818;4.344;2023-05-10T11:36:59;6.75;;;5.55;;
34725;SDS011;20951;50.818;4.344;2023-05-10T11:39:27;6.93;;;5.53;;
34725;SDS011;20951;50.818;4.344;2023-05-10T11:42:04;6.88;;;5.60;;
34725;SDS011;20951;50.818;4.344;2023-05-10T11:44:39;8.38;;;5.55;;
34725;SDS011;20951;50.818;4.344;2023-05-10T11:47:16;6.90;;;5.57;;
34725;SDS011;20951;50.818;4.344;2023-05-10T11:49:45;7.60;;;5.72;;
34725;SDS011;20951;50.818;4.344;2023-05-10T11:52:18;7.25;;;5.30;;
34725;SDS011;20951;50.818;4.344;2023-05-10T11:54:51;8.73;;;6.40;;
34725;SDS011;20951;50.818;4.344;2023-05-10T11:57:28;9.65;;;6.75;;
34725;SDS011;20951;50.818;4.344;2023-05-10T11:59:54;10.00;;;8.10;;
34725;SDS011;20951;50.818;4.344;2023-05-10T12:02:31;11.63;;;8.20;;
34725;SDS011;20951;50.818;4.344;2023-05-10T12:04:59;9.18;;;7.25;;
34725;SDS011;20951;50.818;4.344;2023-05-10T12:07:26;9.80;;;7.80;;
34725;SDS011;20951;50.818;4.344;2023-05-10T12:10:05;10.70;;;8.25;;
34725;SDS011;20951;50.818;4.344;2023-05-10T12:12:44;12.32;;;8.60;;
34725;SDS011;20951;50.818;4.344;2023-05-10T12:15:20;9.95;;;7.95;;
34725;SDS011;20951;50.818;4.344;2023-05-10T12:17:57;8.93;;;7.32;;
34725;SDS011;20951;50.818;4.344;2023-05-10T12:20:23;9.65;;;7.65;;
34725;SDS011;20951;50.818;4.344;2023-05-10T12:25:30;11.18;;;7.93;;
34725;SDS011;20951;50.818;4.344;2023-05-10T12:28:03;9.48;;;7.78;;
34725;SDS011;20951;50.818;4.344;2023-05-10T12:30:40;8.55;;;7.35;;
34725;SDS011;20951;50.818;4.344;2023-05-10T12:33:09;11.35;;;8.18;;
34725;SDS011;20951;50.818;4.344;2023-05-10T12:35:44;9.20;;;7.88;;
34725;SDS011;20951;50.818;4.344;2023-05-10T12:38:31;12.40;;;8.80;;
34725;SDS011;20951;50.818;4.344;2023-05-10T12:41:09;11.45;;;8.98;;
34725;SDS011;20951;50.818;4.344;2023-05-10T12:43:39;11.32;;;8.05;;
34725;SDS011;20951;50.818;4.344;2023-05-10T12:46:06;9.90;;;7.78;;
34725;SDS011;20951;50.818;4.344;2023-05-10T12:48:37;8.93;;;6.70;;
34725;SDS011;20951;50.818;4.344;2023-05-10T12:51:05;9.95;;;7.05;;
34725;SDS011;20951;50.818;4.344;2023-05-10T12:53:34;8.20;;;6.53;;
34725;SDS011;20951;50.818;4.344;2023-05-10T12:56:03;6.22;;;5.38;;
34725;SDS011;20951;50.818;4.344;2023-05-10T12:58:29;7.53;;;5.40;;
34725;SDS011;20951;50.818;4.344;2023-05-10T13:00:55;7.35;;;5.10;;
34725;SDS011;20951;50.818;4.344;2023-05-10T13:03:22;5.78;;;4.38;;
34725;SDS011;20951;50.818;4.344;2023-05-10T13:05:48;6.32;;;4.60;;
34725;SDS011;20951;50.818;4.344;2023-05-10T13:08:21;5.93;;;4.07;;
34725;SDS011;20951;50.818;4.344;2023-05-10T13:10:57;4.40;;;3.58;;
34725;SDS011;20951;50.818;4.344;2023-05-10T13:13:23;6.00;;;3.75;;
34725;SDS011;20951;50.818;4.344;2023-05-10T13:16:00;6.22;;;3.60;;
34725;SDS011;20951;50.818;4.344;2023-05-10T13:18:36;4.22;;;3.05;;
34725;SDS011;20951;50.818;4.344;2023-05-10T13:21:09;5.40;;;3.88;;
34725;SDS011;20951;50.818;4.344;2023-05-10T13:23:52;6.93;;;4.70;;
34725;SDS011;20951;50.818;4.344;2023-05-10T13:26:20;7.63;;;5.20;;
34725;SDS011;20951;50.818;4.344;2023-05-10T13:28:48;9.20;;;5.47;;
34725;SDS011;20951;50.818;4.344;2023-05-10T13:31:16;7.22;;;5.68;;
34725;SDS011;20951;50.818;4.344;2023-05-10T13:34:13;9.20;;;6.78;;
34725;SDS011;20951;50.818;4.344;2023-05-10T13:36:46;7.32;;;5.97;;
34725;SDS011;20951;50.818;4.344;2023-05-10T13:39:25;9.02;;;6.03;;
34725;SDS011;20951;50.818;4.344;2023-05-10T13:42:01;9.63;;;6.55;;
34725;SDS011;20951;50.818;4.344;2023-05-10T13:44:27;9.90;;;7.53;;
34725;SDS011;20951;50.818;4.344;2023-05-10T13:47:04;8.20;;;7.10;;
34725;SDS011;20951;50.818;4.344;2023-05-10T13:52:33;10.45;;;7.70;;
34725;SDS011;20951;50.818;4.344;2023-05-10T13:55:04;10.63;;;8.73;;
34725;SDS011;20951;50.818;4.344;2023-05-10T13:57:40;11.93;;;8.98;;
34725;SDS011;20951;50.818;4.344;2023-05-10T14:00:19;10.50;;;9.10;;
34725;SDS011;20951;50.818;4.344;2023-05-10T14:03:05;13.23;;;10.05;;
34725;SDS011;20951;50.818;4.344;2023-05-10T14:05:44;13.27;;;10.15;;
34725;SDS011;20951;50.818;4.344;2023-05-10T14:08:14;11.70;;;10.48;;
34725;SDS011;20951;50.818;4.344;2023-05-10T14:10:43;12.00;;;9.75;;
34725;SDS011;20951;50.818;4.344;2023-05-10T14:13:24;14.02;;;9.93;;
34725;SDS011;20951;50.818;4.344;2023-05-10T14:19:02;13.55;;;11.40;;
34725;SDS011;20951;50.818;4.344;2023-05-10T14:21:55;15.77;;;12.38;;
34725;SDS011;20951;50.818;4.344;2023-05-10T14:24:34;15.60;;;12.27;;
34725;SDS011;20951;50.818;4.344;2023-05-10T14:27:33;13.88;;;11.65;;
34725;SDS011;20951;50.818;4.344;2023-05-10T14:30:26;12.70;;;10.45;;
34725;SDS011;20951;50.818;4.344;2023-05-10T14:33:21;14.13;;;10.15;;
34725;SDS011;20951;50.818;4.344;2023-05-10T14:36:00;15.48;;;10.18;;
34725;SDS011;20951;50.818;4.344;2023-05-10T14:38:29;14.13;;;10.55;;
34725;SDS011;20951;50.818;4.344;2023-05-10T14:41:05;15.63;;;11.18;;
34725;SDS011;20951;50.818;4.344;2023-05-10T14:43:48;13.80;;;10.77;;
34725;SDS011;20951;50.818;4.344;2023-05-10T14:46:17;14.57;;;12.23;;
34725;SDS011;20951;50.818;4.344;2023-05-10T14:49:11;14.10;;;12.05;;
34725;SDS011;20951;50.818;4.344;2023-05-10T14:51:54;19.15;;;12.70;;
34725;SDS011;20951;50.818;4.344;2023-05-10T14:54:40;15.55;;;12.02;;
34725;SDS011;20951;50.818;4.344;2023-05-10T14:57:39;15.32;;;12.60;;
34725;SDS011;20951;50.818;4.344;2023-05-10T15:00:23;15.65;;;11.90;;
34725;SDS011;20951;50.818;4.344;2023-05-10T15:03:12;16.70;;;11.57;;
34725;SDS011;20951;50.818;4.344;2023-05-10T15:06:05;16.05;;;11.38;;
34725;SDS011;20951;50.818;4.344;2023-05-10T15:08:40;15.60;;;10.63;;
34725;SDS011;20951;50.818;4.344;2023-05-10T15:11:26;13.55;;;9.20;;
34725;SDS011;20951;50.818;4.344;2023-05-10T15:14:06;12.23;;;8.45;;
34725;SDS011;20951;50.818;4.344;2023-05-10T15:16:44;14.30;;;7.80;;
34725;SDS011;20951;50.818;4.344;2023-05-10T15:19:33;16.38;;;9.07;;
34725;SDS011;20951;50.818;4.344;2023-05-10T15:22:17;10.50;;;6.60;;
34725;SDS011;20951;50.818;4.344;2023-05-10T15:24:55;11.90;;;5.93;;
34725;SDS011;20951;50.818;4.344;2023-05-10T15:27:37;7.43;;;4.78;;
34725;SDS011;20951;50.818;4.344;2023-05-10T15:33:14;6.90;;;4.30;;
34725;SDS011;20951;50.818;4.344;2023-05-10T15:35:53;8.95;;;3.95;;
34725;SDS011;20951;50.818;4.344;2023-05-10T15:41:24;7.82;;;3.00;;
34725;SDS011;20951;50.818;4.344;2023-05-10T15:44:20;7.00;;;2.78;;
34725;SDS011;20951;50.818;4.344;2023-05-10T15:47:34;8.52;;;3.30;;
34725;SDS011;20951;50.818;4.344;2023-05-10T15:50:13;7.43;;;3.15;;
34725;SDS011;20951;50.818;4.344;2023-05-10T15:52:42;7.28;;;2.70;;
34725;SDS011;20951;50.818;4.344;2023-05-10T15:55:23;8.73;;;2.63;;
34725;SDS011;20951;50.818;4.344;2023-05-10T15:58:13;9.88;;;2.50;;
34725;SDS011;20951;50.818;4.344;2023-05-10T16:00:56;9.30;;;2.70;;
34725;SDS011;20951;50.818;4.344;2023-05-10T16:03:41;8.27;;;2.80;;
34725;SDS011;20951;50.818;4.344;2023-05-10T16:06:15;7.97;;;2.50;;
34725;SDS011;20951;50.818;4.344;2023-05-10T16:09:02;8.07;;;2.58;;